Airfield :
LOGIN :

Register | Disclaimer

   EN    FR    IT 

 










Legend :    VFR   Marginal VFR   IFR   Intensive IFR   Very Intensive IFR
Visi :
Ceiling :
>= 8 km
>= 3000ft
5 to 8 km
1000 to 3000 ft
1500m to 5 km
500 to 1000 ft
800 to 1500m
200 to 500 ft
< 800m
< 200 ft
Symbols :   Thunderstorms  Fog  Heavy snow  Heavy precipitations  Wind > 20 kt
SIGMETs :     Misc.  Thunderstorms  Icing  Turbulence  Mountain Waves  Volcanic Ashes






- Airport Elevation : 37 ft
- IATA code : FRO


ENFL - Florø

CURRENT METAR :
  • 112150Z 19039G50KT 9999 VCSH FEW025CB SCT035TCU BKN050 07/03 Q0981

EXPIRED METARs :
  • 112120Z 19040G53KT 9999 -SHRA SCT030CB BKN045 07/03 Q0981
  • 112050Z 19034G48KT 9999 VCSH SCT028CB SCT045 07/03 Q0981
  • 112020Z 19036G53KT 9999 -SHRA FEW025CB SCT030TCU BKN045 07/02 Q0982 RERAGS
  • 111950Z 19039G50KT 9999 -SHRA FEW025CB SCT030TCU BKN050 07/03 Q0982
  • 111920Z 19038G48KT 9999 -SHRA FEW025CB SCT030TCU BKN055 08/03 Q0982

TAF TAF ENFL
Valid from the 11 at 18:00 until the 11 at 23:00 UTC


111700Z 1118/1123 18030KT 9999 -SHRA FEW020TCU SCT030
TEMPO 1118/1123 19035G52KT SHRA SCT015CB BKN020
PROB40
TEMPO 1118/1123 4000 TSGS



MET'MAP, your aeronautical weather chart ! - Copyright ORBIFLY December 2007 - Disclaimer

ORBIFLY MET'MAP TEAM :

Programming & Development : Alexandra Zaïnal
Concept & original design : Baudouin d'Aumeries
Assistance for programming : Marc-Olivier Méhu
Technical & hardware support : Manuel Goepfert

Contact : metmap@orbifly.com




SOURCES & CREDITS :

   NOAA